createdAt,value
2018-06-09T00:00:09.693Z,100900.10
2018-06-09T00:02:38.539Z,100901.91
2018-06-09T00:05:07.364Z,100895.32
2018-06-09T00:07:36.181Z,100901.88
2018-06-09T00:10:05.084Z,100900.95
2018-06-09T00:12:34.001Z,100899.53
2018-06-09T00:15:02.796Z,100899.78
2018-06-09T00:17:31.634Z,100901.37
2018-06-09T00:20:00.518Z,100894.45
2018-06-09T00:22:29.372Z,100897.03
2018-06-09T00:24:58.197Z,100892.15
2018-06-09T00:27:27.103Z,100895.64
2018-06-09T00:29:55.989Z,100884.46
2018-06-09T00:32:24.810Z,100886.59
2018-06-09T00:34:53.713Z,100892.74
2018-06-09T00:37:22.606Z,100892.55
2018-06-09T00:39:51.521Z,100900.94
2018-06-09T00:42:20.370Z,100897.55
2018-06-09T00:44:49.223Z,100910.14
2018-06-09T00:47:18.114Z,100912.54
2018-06-09T00:49:46.974Z,100911.22
2018-06-09T00:52:15.795Z,100916.26
2018-06-09T00:54:44.645Z,100912.41
2018-06-09T00:57:13.418Z,100917.53
2018-06-09T00:59:42.234Z,100909.68
2018-06-09T01:02:11.126Z,100914.66
2018-06-09T01:04:39.965Z,100917.58
2018-06-09T01:07:08.962Z,100918.92
2018-06-09T01:09:37.810Z,100911.51
2018-06-09T01:12:06.729Z,100916.89
2018-06-09T01:14:35.562Z,100911.29
2018-06-09T01:17:04.428Z,100914.02
2018-06-09T01:19:33.372Z,100909.48
2018-06-09T01:22:02.272Z,100905.44
2018-06-09T01:24:31.154Z,100903.27
2018-06-09T01:26:59.989Z,100908.05
2018-06-09T01:29:28.835Z,100906.64
2018-06-09T01:31:57.682Z,100907.59
2018-06-09T01:34:26.543Z,100903.88
2018-06-09T01:36:55.417Z,100904.95
2018-06-09T01:39:24.301Z,100897.12
2018-06-09T01:41:53.144Z,100900.12
2018-06-09T01:44:22.029Z,100900.03
2018-06-09T01:46:50.843Z,100900.03
2018-06-09T01:49:19.663Z,100904.50
2018-06-09T01:51:48.545Z,100910.84
2018-06-09T01:54:17.388Z,100911.44
2018-06-09T01:56:46.289Z,100908.80
2018-06-09T01:59:15.184Z,100915.42
2018-06-09T02:01:44.075Z,100913.61
2018-06-09T02:04:13.036Z,100910.12
2018-06-09T02:06:41.882Z,100903.89
2018-06-09T02:09:10.740Z,100902.93
2018-06-09T02:11:39.637Z,100901.47
2018-06-09T02:14:08.529Z,100902.67
2018-06-09T02:16:37.401Z,100899.20
2018-06-09T02:19:06.306Z,100902.88
2018-06-09T02:21:35.215Z,100897.94
2018-06-09T02:24:04.083Z,100900.11
2018-06-09T02:26:32.978Z,100903.95
2018-06-09T02:29:01.879Z,100895.23
2018-06-09T02:31:30.703Z,100897.34
2018-06-09T02:33:59.601Z,100900.66
2018-06-09T02:36:28.478Z,100900.00
2018-06-09T02:38:57.356Z,100896.32
2018-06-09T02:41:26.309Z,100902.07
2018-06-09T02:43:55.216Z,100906.73
2018-06-09T02:46:24.117Z,100901.98
2018-06-09T02:48:53.048Z,100904.61
2018-06-09T02:51:21.915Z,100912.07
2018-06-09T02:53:50.886Z,100917.88
2018-06-09T02:56:19.769Z,100920.80
2018-06-09T02:58:48.714Z,100926.64
2018-06-09T03:01:17.572Z,100927.41
2018-06-09T03:03:46.478Z,100925.50
2018-06-09T03:06:15.384Z,100929.27
2018-06-09T03:08:44.317Z,100931.20
2018-06-09T03:11:13.229Z,100935.75
2018-06-09T03:13:42.103Z,100934.92
2018-06-09T03:16:10.959Z,100928.37
2018-06-09T03:18:39.884Z,100931.84
2018-06-09T03:21:08.766Z,100927.05
2018-06-09T03:23:37.700Z,100929.09
2018-06-09T03:26:06.589Z,100935.50
2018-06-09T03:28:35.453Z,100936.06
2018-06-09T03:31:04.349Z,100930.29
2018-06-09T03:33:33.196Z,100927.05
2018-06-09T03:36:02.079Z,100934.08
2018-06-09T03:38:30.972Z,100937.05
2018-06-09T03:40:59.894Z,100939.83
2018-06-09T03:43:28.883Z,100935.09
2018-06-09T03:45:57.672Z,100931.24
2018-06-09T03:48:26.537Z,100932.45
2018-06-09T03:50:55.402Z,100936.67
2018-06-09T03:53:24.241Z,100935.25
2018-06-09T03:55:53.130Z,100939.42
2018-06-09T03:58:26.352Z,100938.00
2018-06-09T04:00:55.515Z,100944.72
2018-06-09T04:03:24.358Z,100940.16
2018-06-09T04:05:53.197Z,100937.97
2018-06-09T04:08:22.056Z,100940.22
2018-06-09T04:10:50.871Z,100941.56
2018-06-09T04:13:19.767Z,100939.00
2018-06-09T04:15:48.613Z,100937.61
2018-06-09T04:18:17.476Z,100943.23
2018-06-09T04:20:46.288Z,100934.64
2018-06-09T04:23:15.124Z,100940.05
2018-06-09T04:25:44.044Z,100935.22
2018-06-09T04:30:18.845Z,100938.48
2018-06-09T04:32:47.682Z,100934.52
2018-06-09T04:35:16.504Z,100933.91
2018-06-09T04:37:45.316Z,100938.43
2018-06-09T04:40:14.170Z,100940.22
2018-06-09T04:42:43.005Z,100945.14
2018-06-09T04:45:11.878Z,100942.13
2018-06-09T04:47:48.777Z,100943.67
2018-06-09T04:50:17.728Z,100944.10
2018-06-09T04:52:54.222Z,100938.61
2018-06-09T04:55:23.090Z,100943.08
2018-06-09T04:57:51.924Z,100949.83
2018-06-09T05:00:20.782Z,100952.09
2018-06-09T05:02:49.626Z,100945.32
2018-06-09T05:05:18.509Z,100952.09
2018-06-09T05:07:47.460Z,100945.15
2018-06-09T05:10:16.464Z,100948.57
2018-06-09T05:12:45.374Z,100948.31
2018-06-09T05:15:14.256Z,100948.80
2018-06-09T05:17:43.305Z,100948.72
2018-06-09T05:20:12.145Z,100946.78
2018-06-09T05:22:41.071Z,100950.95
2018-06-09T05:25:09.969Z,100956.23
2018-06-09T05:27:38.810Z,100954.93
2018-06-09T05:30:07.753Z,100953.83
2018-06-09T05:32:36.659Z,100952.11
2018-06-09T05:35:05.667Z,100946.10
2018-06-09T05:37:34.540Z,100949.23
2018-06-09T05:40:03.470Z,100951.66
2018-06-09T05:42:32.356Z,100953.92
2018-06-09T05:45:01.236Z,100952.81
2018-06-09T05:47:30.148Z,100952.19
2018-06-09T05:50:02.866Z,100956.30
2018-06-09T05:52:43.256Z,100962.09
2018-06-09T05:55:24.608Z,100954.55
2018-06-09T05:57:53.802Z,100955.97
2018-06-09T06:00:22.709Z,100963.29
2018-06-09T06:02:51.605Z,100960.79
2018-06-09T06:05:20.447Z,100955.98
2018-06-09T06:07:49.361Z,100963.44
2018-06-09T06:10:18.205Z,100971.12
2018-06-09T06:12:50.935Z,100971.91
2018-06-09T06:15:19.785Z,100966.82
2018-06-09T06:17:48.675Z,100970.69
2018-06-09T06:20:17.584Z,100976.61
2018-06-09T06:22:46.424Z,100980.05
2018-06-09T06:25:15.357Z,100985.66
2018-06-09T06:27:44.253Z,100988.47
2018-06-09T06:30:13.166Z,100986.48
2018-06-09T06:32:42.005Z,100998.58
2018-06-09T06:35:10.909Z,101002.97
2018-06-09T06:37:39.755Z,101005.71
2018-06-09T06:40:08.638Z,101006.89
2018-06-09T06:42:37.531Z,101014.97
2018-06-09T06:45:07.441Z,101017.88
2018-06-09T06:47:36.496Z,101012.05
2018-06-09T06:50:05.397Z,101014.14
2018-06-09T06:52:34.376Z,101009.94
2018-06-09T06:55:05.835Z,101009.09
2018-06-09T06:57:34.755Z,101008.17
2018-06-09T07:00:03.872Z,101003.88
2018-06-09T07:02:32.787Z,101011.06
2018-06-09T07:05:01.686Z,100999.53
2018-06-09T07:07:30.619Z,101004.16
2018-06-09T07:09:59.503Z,101005.05
2018-06-09T07:12:28.453Z,101005.77
2018-06-09T07:14:57.344Z,101002.41
2018-06-09T07:17:26.392Z,101010.67
2018-06-09T07:19:55.277Z,101010.55
2018-06-09T07:22:24.144Z,101011.36
2018-06-09T07:24:53.059Z,101006.72
2018-06-09T07:27:22.055Z,101006.72
2018-06-09T07:29:51.742Z,101015.22
2018-06-09T07:32:21.061Z,101017.33
2018-06-09T07:34:49.929Z,101013.81
2018-06-09T07:37:21.225Z,101013.02
2018-06-09T07:39:50.189Z,101011.91
2018-06-09T07:42:19.176Z,101015.55
2018-06-09T07:44:48.168Z,101010.70
2018-06-09T07:47:17.173Z,101012.95
2018-06-09T07:49:46.403Z,101017.92
2018-06-09T07:52:15.292Z,101018.88
2018-06-09T07:54:44.225Z,101015.83
2018-06-09T07:57:13.116Z,101014.94
2018-06-09T07:59:42.130Z,101014.59
2018-06-09T08:02:11.034Z,101008.73
2018-06-09T08:04:39.949Z,101008.08
2018-06-09T08:07:08.922Z,101012.45
2018-06-09T08:09:39.446Z,101011.98
2018-06-09T08:12:08.394Z,101010.02
2018-06-09T08:14:37.236Z,101003.42
2018-06-09T08:17:06.083Z,101007.69
2018-06-09T08:19:35.027Z,101008.36
2018-06-09T08:22:03.873Z,101008.44
2018-06-09T08:24:32.716Z,101000.58
2018-06-09T08:27:01.644Z,101009.28
2018-06-09T08:29:30.642Z,101013.56
2018-06-09T08:31:59.515Z,101013.13
2018-06-09T08:34:28.455Z,101013.34
2018-06-09T08:36:57.378Z,101016.20
2018-06-09T08:39:26.320Z,101010.22
2018-06-09T08:41:55.319Z,101010.55
2018-06-09T08:44:24.246Z,101012.73
2018-06-09T08:46:53.130Z,101012.91
2018-06-09T08:49:22.148Z,101017.09
2018-06-09T08:51:51.122Z,101019.42
2018-06-09T08:54:20.060Z,101014.41
2018-06-09T08:56:49.015Z,101014.58
2018-06-09T08:59:17.889Z,101016.42
2018-06-09T09:01:57.950Z,101013.56
2018-06-09T09:04:37.742Z,101004.55
2018-06-09T09:07:14.237Z,101007.73
2018-06-09T09:09:43.150Z,100998.34
2018-06-09T09:12:12.090Z,100997.81
2018-06-09T09:14:41.049Z,100991.83
2018-06-09T09:17:09.949Z,100994.00
2018-06-09T09:19:38.844Z,100989.94
2018-06-09T09:22:07.770Z,100986.09
2018-06-09T09:24:36.692Z,100991.61
2018-06-09T09:27:05.610Z,100989.44
2018-06-09T09:29:34.492Z,100990.09
2018-06-09T09:32:03.404Z,100984.25
2018-06-09T09:34:32.381Z,100986.61
2018-06-09T09:37:01.232Z,100993.33
2018-06-09T09:39:30.147Z,100987.45
2018-06-09T09:42:00.471Z,100988.81
2018-06-09T09:44:29.335Z,100991.62
2018-06-09T09:46:58.281Z,100994.00
2018-06-09T09:49:27.212Z,100994.47
2018-06-09T09:51:56.160Z,100994.50
2018-06-09T09:54:25.027Z,100994.14
2018-06-09T09:57:01.252Z,100994.80
2018-06-09T09:59:30.182Z,100996.67
2018-06-09T10:02:10.571Z,101000.48
2018-06-09T10:04:56.178Z,101004.98
2018-06-09T10:07:27.572Z,100994.98
2018-06-09T10:10:10.869Z,100994.50
2018-06-09T10:12:39.874Z,100992.33
2018-06-09T10:15:08.806Z,100992.30
2018-06-09T10:17:37.589Z,100989.65
2018-06-09T10:20:06.495Z,100995.34
2018-06-09T10:22:35.369Z,100990.82
2018-06-09T10:25:04.389Z,100993.95
2018-06-09T10:27:33.236Z,100986.69
2018-06-09T10:30:02.128Z,100997.58
2018-06-09T10:32:31.115Z,100988.03
2018-06-09T10:34:59.994Z,100996.84
2018-06-09T10:37:28.866Z,100987.64
2018-06-09T10:39:57.750Z,100993.30
2018-06-09T10:42:26.695Z,100995.92
2018-06-09T10:44:55.686Z,100988.80
2018-06-09T10:47:24.583Z,100982.05
2018-06-09T10:49:53.478Z,100989.69
2018-06-09T10:52:22.354Z,100981.37
2018-06-09T10:54:51.213Z,100985.46
2018-06-09T10:57:20.089Z,100978.57
2018-06-09T10:59:49.355Z,100978.84
2018-06-09T11:02:18.249Z,100980.41
2018-06-09T11:04:47.091Z,100974.15
2018-06-09T11:07:16.001Z,100972.09
2018-06-09T11:09:45.653Z,100970.13
2018-06-09T11:12:14.632Z,100974.26
2018-06-09T11:14:43.599Z,100972.05
2018-06-09T11:17:12.466Z,100976.50
2018-06-09T11:20:01.405Z,100976.44
2018-06-09T11:23:02.676Z,100965.20
2018-06-09T11:25:36.713Z,100970.75
2018-06-09T11:28:05.595Z,100962.45
2018-06-09T11:30:44.863Z,100964.73
2018-06-09T11:33:13.763Z,100967.23
2018-06-09T11:36:12.069Z,100966.26
2018-06-09T11:38:41.012Z,100959.11
2018-06-09T11:41:09.900Z,100962.05
2018-06-09T11:43:38.764Z,100955.33
2018-06-09T11:46:07.621Z,100959.42
2018-06-09T11:48:36.530Z,100952.83
2018-06-09T11:51:05.385Z,100955.84
2018-06-09T11:53:34.254Z,100954.05
2018-06-09T11:56:03.208Z,100945.91
2018-06-09T11:58:32.047Z,100952.12
2018-06-09T12:01:00.979Z,100947.12
2018-06-09T12:03:29.999Z,100939.64
2018-06-09T12:05:58.900Z,100939.48
2018-06-09T12:08:27.829Z,100940.77
2018-06-09T12:11:01.321Z,100939.07
2018-06-09T12:13:39.916Z,100933.77
2018-06-09T12:16:08.972Z,100933.13
2018-06-09T12:18:37.847Z,100935.41
2018-06-09T12:21:06.725Z,100931.63
2018-06-09T12:23:35.664Z,100930.38
2018-06-09T12:26:05.545Z,100925.52
2018-06-09T12:28:35.381Z,100925.70
2018-06-09T12:31:05.169Z,100930.55
2018-06-09T12:33:34.084Z,100920.52
2018-06-09T12:36:02.969Z,100919.36
2018-06-09T12:38:31.827Z,100930.77
2018-06-09T12:41:00.735Z,100923.82
2018-06-09T12:43:33.614Z,100918.30
2018-06-09T12:46:04.907Z,100920.88
2018-06-09T12:48:33.914Z,100925.22
2018-06-09T12:51:02.779Z,100921.32
2018-06-09T12:53:31.621Z,100917.09
2018-06-09T12:56:00.832Z,100910.52
2018-06-09T12:58:29.778Z,100912.48
2018-06-09T13:00:59.817Z,100916.59
2018-06-09T13:03:29.378Z,100913.45
2018-06-09T13:05:58.291Z,100910.83
2018-06-09T13:08:28.451Z,100907.13
2018-06-09T13:11:07.965Z,100897.47
2018-06-09T13:13:37.158Z,100903.34
2018-06-09T13:16:06.060Z,100903.79
2018-06-09T13:18:34.925Z,100902.38
2018-06-09T13:21:03.872Z,100900.08
2018-06-09T13:23:32.739Z,100890.64
2018-06-09T13:26:01.599Z,100890.79
2018-06-09T13:28:31.557Z,100890.25
2018-06-09T13:31:00.936Z,100883.37
2018-06-09T13:33:33.109Z,100875.38
2018-06-09T13:36:02.120Z,100877.00
2018-06-09T13:38:31.442Z,100872.40
2018-06-09T13:41:00.473Z,100866.89
2018-06-09T13:43:29.490Z,100865.08
2018-06-09T13:45:58.323Z,100872.51
2018-06-09T13:48:27.666Z,100856.41
2018-06-09T13:50:56.525Z,100866.09
2018-06-09T13:53:25.381Z,100858.58
2018-06-09T13:55:54.246Z,100862.78
2018-06-09T13:58:23.082Z,100857.00
2018-06-09T14:00:51.942Z,100859.77
2018-06-09T14:03:20.780Z,100864.77
2018-06-09T14:05:50.182Z,100857.27
2018-06-09T14:08:19.506Z,100856.02
2018-06-09T14:10:51.502Z,100855.14
2018-06-09T14:13:21.379Z,100851.95
2018-06-09T14:15:51.219Z,100857.90
2018-06-09T14:18:20.213Z,100845.77
2018-06-09T14:20:49.287Z,100842.71
2018-06-09T14:23:18.271Z,100850.98
2018-06-09T14:25:47.145Z,100853.09
2018-06-09T14:28:16.227Z,100855.09
2018-06-09T14:30:45.093Z,100857.10
2018-06-09T14:33:13.980Z,100858.58
2018-06-09T14:35:43.179Z,100851.33
2018-06-09T14:38:12.546Z,100849.69
2018-06-09T14:40:41.507Z,100842.62
2018-06-09T14:43:10.359Z,100845.63
2018-06-09T14:45:39.605Z,100835.62
2018-06-09T14:48:08.428Z,100842.34
2018-06-09T14:50:38.377Z,100840.78
2018-06-09T14:53:08.258Z,100829.45
2018-06-09T14:55:38.151Z,100837.78
2018-06-09T14:58:08.214Z,100830.80
2018-06-09T15:00:48.151Z,100825.62
2018-06-09T15:03:17.412Z,100828.35
2018-06-09T15:05:46.314Z,100827.66
2018-06-09T15:08:15.232Z,100828.02
2018-06-09T15:10:44.153Z,100820.22
2018-06-09T15:13:13.053Z,100827.45
2018-06-09T15:15:41.886Z,100824.17
2018-06-09T15:33:41.716Z,100826.06
2018-06-09T15:36:10.821Z,100822.63
2018-06-09T15:38:39.863Z,100825.09
2018-06-09T15:41:09.582Z,100823.84
2018-06-09T15:43:39.067Z,100816.38
2018-06-09T15:46:08.222Z,100823.37
2018-06-09T15:49:19.064Z,100823.23
2018-06-09T15:51:48.735Z,100819.21
2018-06-09T15:54:18.537Z,100818.92
2018-06-09T15:56:48.518Z,100812.16
2018-06-09T15:59:17.494Z,100813.41
2018-06-09T16:01:49.767Z,100809.45
2018-06-09T16:04:19.029Z,100806.34
2018-06-09T16:06:47.889Z,100808.01
2018-06-09T16:09:16.894Z,100796.41
2018-06-09T16:11:47.398Z,100799.92
2018-06-09T16:14:17.232Z,100796.31
2018-06-09T16:16:47.255Z,100790.12
2018-06-09T16:19:17.332Z,100792.11
2018-06-09T16:21:46.227Z,100796.47
2018-06-09T16:24:15.020Z,100791.67
2018-06-09T16:26:43.962Z,100797.45
2018-06-09T16:29:12.835Z,100796.74
2018-06-09T16:31:41.736Z,100791.62
2018-06-09T16:34:10.797Z,100794.81
2018-06-09T16:36:39.653Z,100798.59
2018-06-09T16:39:08.644Z,100798.30
2018-06-09T16:41:37.575Z,100796.66
2018-06-09T16:44:06.695Z,100792.87
2018-06-09T16:46:35.593Z,100787.84
2018-06-09T16:49:04.579Z,100788.05
2018-06-09T16:51:33.466Z,100791.28
2018-06-09T16:54:02.516Z,100796.48
2018-06-09T16:56:31.664Z,100797.06
2018-06-09T16:59:00.724Z,100803.43
2018-06-09T17:01:29.954Z,100791.56
2018-06-09T17:03:59.172Z,100788.75
2018-06-09T17:06:28.277Z,100788.80
2018-06-09T17:08:57.357Z,100787.19
2018-06-09T17:11:26.353Z,100792.73
2018-06-09T17:13:55.237Z,100796.48
2018-06-09T17:16:24.108Z,100791.59
2018-06-09T17:18:53.367Z,100790.08
2018-06-09T17:21:22.251Z,100792.30
2018-06-09T17:23:51.221Z,100793.13
2018-06-09T17:26:20.317Z,100792.89
2018-06-09T17:28:49.900Z,100790.56
2018-06-09T17:31:18.864Z,100807.27
2018-06-09T17:33:48.167Z,100801.17
2018-06-09T17:36:17.058Z,100806.42
2018-06-09T17:38:45.902Z,100806.11
2018-06-09T17:41:15.539Z,100805.44
2018-06-09T17:43:44.445Z,100812.63
2018-06-09T17:46:13.591Z,100808.62
2018-06-09T17:48:42.548Z,100811.45
2018-06-09T17:51:11.527Z,100816.30
2018-06-09T17:53:40.569Z,100815.80
2018-06-09T17:56:09.547Z,100810.11
2018-06-09T17:58:38.393Z,100805.66
2018-06-09T18:01:07.396Z,100805.17
2018-06-09T18:03:36.795Z,100806.35
2018-06-09T18:06:05.759Z,100803.67
2018-06-09T18:08:34.631Z,100798.38
2018-06-09T18:11:03.559Z,100802.27
2018-06-09T18:13:32.399Z,100798.39
2018-06-09T18:16:01.352Z,100801.27
2018-06-09T18:18:47.791Z,100801.43
2018-06-09T18:21:16.709Z,100800.42
2018-06-09T18:23:45.807Z,100801.11
2018-06-09T18:26:14.732Z,100805.12
2018-06-09T18:28:43.587Z,100807.13
2018-06-09T18:31:12.921Z,100805.63
2018-06-09T18:33:41.964Z,100806.89
2018-06-09T18:36:10.902Z,100804.06
2018-06-09T18:38:40.272Z,100805.07
2018-06-09T18:41:09.358Z,100805.55
2018-06-09T18:43:38.294Z,100809.34
2018-06-09T18:46:07.461Z,100806.29
2018-06-09T18:48:36.364Z,100805.41
2018-06-09T18:51:05.511Z,100805.97
2018-06-09T18:53:34.425Z,100801.79
2018-06-09T18:56:03.335Z,100798.84
2018-06-09T18:58:32.626Z,100803.11
2018-06-09T19:01:01.455Z,100802.16
2018-06-09T19:03:30.414Z,100807.83
2018-06-09T19:05:59.571Z,100804.97
2018-06-09T19:08:28.477Z,100810.48
2018-06-09T19:10:57.395Z,100806.79
2018-06-09T19:13:26.283Z,100809.30
2018-06-09T19:15:56.653Z,100804.70
2018-06-09T19:18:25.537Z,100809.65
2018-06-09T19:20:54.426Z,100813.21
2018-06-09T19:23:23.324Z,100811.07
2018-06-09T19:25:52.190Z,100805.55
2018-06-09T19:28:21.394Z,100806.14
2018-06-09T19:30:50.353Z,100811.61
2018-06-09T19:33:19.877Z,100807.53
2018-06-09T19:35:49.803Z,100812.00
2018-06-09T19:38:19.156Z,100812.20
2018-06-09T19:40:48.642Z,100806.14
2018-06-09T19:43:18.300Z,100809.98
2018-06-09T19:45:47.245Z,100807.13
2018-06-09T19:48:16.225Z,100812.91
2018-06-09T19:50:45.375Z,100804.62
2018-06-09T19:53:14.293Z,100806.25
2018-06-09T19:55:43.749Z,100802.41
2018-06-09T19:58:13.494Z,100795.77
2018-06-09T20:00:43.108Z,100796.61
2018-06-09T20:03:12.145Z,100802.78
2018-06-09T20:05:41.070Z,100811.38
2018-06-09T20:08:12.557Z,100804.41
2018-06-09T20:10:41.441Z,100809.52
2018-06-09T20:13:10.342Z,100813.19
2018-06-09T20:15:39.233Z,100814.73
2018-06-09T20:30:13.782Z,100817.74
2018-06-09T20:32:42.710Z,100835.66
2018-06-09T20:35:11.577Z,100831.61
2018-06-09T20:37:41.321Z,100827.28
2018-06-09T20:40:10.246Z,100827.91
2018-06-09T20:42:39.225Z,100834.00
2018-06-09T20:45:08.095Z,100836.77
2018-06-09T20:47:36.965Z,100836.87
2018-06-09T20:50:05.849Z,100833.61
2018-06-09T20:52:34.705Z,100833.01
2018-06-09T20:55:03.610Z,100829.52
2018-06-09T20:57:32.541Z,100834.25
2018-06-09T21:00:01.425Z,100835.22
2018-06-09T21:02:30.638Z,100823.69
2018-06-09T21:04:59.582Z,100831.20
2018-06-09T21:07:28.450Z,100828.72
2018-06-09T21:09:58.316Z,100825.02
2018-06-09T21:12:27.134Z,100826.83
2018-06-09T21:14:55.975Z,100831.72
2018-06-09T21:17:25.490Z,100832.61
2018-06-09T21:19:54.397Z,100827.58
2018-06-09T21:22:23.269Z,100832.61
2018-06-09T21:24:53.669Z,100832.08
2018-06-09T21:27:27.798Z,100824.05
2018-06-09T21:29:59.440Z,100820.42
2018-06-09T21:32:29.020Z,100825.89
2018-06-09T21:35:12.926Z,100826.60
2018-06-09T21:37:43.305Z,100827.58
2018-06-09T21:40:17.404Z,100826.73
2018-06-09T21:42:50.614Z,100828.02
2018-06-09T21:45:28.460Z,100822.58
2018-06-09T21:47:57.697Z,100818.47
2018-06-09T21:50:26.620Z,100816.66
2018-06-09T21:52:55.463Z,100814.42
2018-06-09T21:55:24.322Z,100816.84
2018-06-09T21:57:53.237Z,100816.94
2018-06-09T22:00:22.204Z,100815.39
2018-06-09T22:02:51.477Z,100813.80
2018-06-09T22:05:20.389Z,100810.66
2018-06-09T22:07:49.293Z,100811.14
2018-06-09T22:10:19.126Z,100817.33
2018-06-09T22:12:48.019Z,100807.26
2018-06-09T22:15:16.879Z,100802.17
2018-06-09T22:17:46.787Z,100806.78
2018-06-09T22:20:15.988Z,100802.98
2018-06-09T22:22:45.571Z,100803.56
2018-06-09T22:25:19.435Z,100799.59
2018-06-09T22:27:49.678Z,100807.41
2018-06-09T22:30:19.731Z,100802.89
2018-06-09T22:32:48.623Z,100798.30
2018-06-09T22:35:17.680Z,100793.63
2018-06-09T22:37:50.046Z,100786.36
2018-06-09T22:40:18.978Z,100785.81
2018-06-09T22:42:47.896Z,100783.37
2018-06-09T22:45:17.633Z,100774.61
2018-06-09T22:47:46.475Z,100771.52
2018-06-09T22:50:17.099Z,100766.42
2018-06-09T22:52:45.962Z,100763.52
2018-06-09T22:55:14.832Z,100762.96
2018-06-09T22:57:44.983Z,100756.21
2018-06-09T23:00:21.042Z,100757.05
2018-06-09T23:02:50.115Z,100750.88
2018-06-09T23:05:18.996Z,100743.03
2018-06-09T23:07:47.965Z,100741.09
2018-06-09T23:10:16.947Z,100735.31
2018-06-09T23:12:46.236Z,100738.09
2018-06-09T23:15:15.110Z,100731.95
2018-06-09T23:17:43.965Z,100733.28
2018-06-09T23:20:12.839Z,100725.02
2018-06-09T23:22:41.726Z,100721.16
2018-06-09T23:25:10.608Z,100722.91
2018-06-09T23:27:39.441Z,100718.40
2018-06-09T23:30:08.359Z,100722.64
2018-06-09T23:32:37.325Z,100723.34
2018-06-09T23:35:06.274Z,100722.38
2018-06-09T23:37:35.182Z,100721.53
2018-06-09T23:40:04.065Z,100717.21
2018-06-09T23:42:33.414Z,100720.08
2018-06-09T23:45:02.274Z,100716.69
2018-06-09T23:47:31.210Z,100717.08
2018-06-09T23:50:00.122Z,100716.50
2018-06-09T23:52:29.021Z,100714.67
2018-06-09T23:54:57.906Z,100717.27
2018-06-09T23:57:26.821Z,100708.31
2018-06-09T23:59:55.724Z,100711.28
